createdAt,value
2018-09-04T00:00:10.764Z,43.90
2018-09-04T00:02:38.684Z,42.47
2018-09-04T00:05:06.783Z,44.60
2018-09-04T00:07:34.688Z,47.37
2018-09-04T00:10:02.687Z,48.13
2018-09-04T00:12:30.623Z,48.03
2018-09-04T00:14:58.625Z,47.83
2018-09-04T00:17:26.642Z,48.03
2018-09-04T00:19:54.955Z,45.33
2018-09-04T00:22:23.001Z,45.67
2018-09-04T00:24:50.984Z,45.90
2018-09-04T00:27:18.969Z,42.17
2018-09-04T00:29:47.055Z,50.23
2018-09-04T00:32:15.128Z,50.77
2018-09-04T00:34:43.154Z,47.63
2018-09-04T00:37:11.524Z,51.73
2018-09-04T00:39:39.316Z,46.10
2018-09-04T00:42:07.204Z,52.33
2018-09-04T00:44:35.136Z,49.80
2018-09-04T00:47:03.053Z,50.53
2018-09-04T00:49:31.057Z,46.57
2018-09-04T00:51:59.078Z,48.67
2018-09-04T00:54:27.026Z,47.83
2018-09-04T00:56:54.930Z,48.37
2018-09-04T00:59:22.904Z,60.57
2018-09-04T01:01:50.810Z,53.27
2018-09-04T01:04:18.743Z,58.03
2018-09-04T01:06:46.686Z,56.13
2018-09-04T01:09:19.577Z,64.17
2018-09-04T01:11:47.506Z,58.60
2018-09-04T01:14:15.565Z,66.20
2018-09-04T01:16:43.817Z,64.90
2018-09-04T01:19:11.959Z,66.70
2018-09-04T01:21:39.978Z,62.50
2018-09-04T01:24:08.167Z,63.83
2018-09-04T01:26:36.182Z,53.43
2018-09-04T01:29:04.366Z,62.50
2018-09-04T01:31:32.454Z,60.17
2018-09-04T01:34:01.055Z,59.30
2018-09-04T01:36:29.081Z,57.20
2018-09-04T01:38:57.032Z,64.17
2018-09-04T01:41:24.940Z,65.80
2018-09-04T01:43:52.876Z,66.83
2018-09-04T01:46:20.765Z,68.23
2018-09-04T01:48:51.141Z,62.80
2018-09-04T01:51:19.071Z,66.80
2018-09-04T01:53:46.984Z,60.50
2018-09-04T01:56:15.067Z,63.80
2018-09-04T01:58:43.073Z,62.20
2018-09-04T02:01:11.281Z,66.17
2018-09-04T02:03:39.237Z,65.23
2018-09-04T02:06:07.297Z,69.43
2018-09-04T02:08:35.424Z,67.67
2018-09-04T02:11:03.337Z,67.83
2018-09-04T02:13:31.401Z,62.60
2018-09-04T02:15:59.741Z,58.50
2018-09-04T02:18:27.668Z,62.83
2018-09-04T02:20:55.628Z,64.03
2018-09-04T02:23:23.555Z,63.23
2018-09-04T02:25:51.547Z,69.10
2018-09-04T02:28:19.357Z,69.47
2018-09-04T02:30:47.352Z,64.93
2018-09-04T02:33:15.319Z,62.60
2018-09-04T02:35:43.129Z,63.27
2018-09-04T02:38:11.068Z,59.73
2018-09-04T02:40:38.923Z,65.17
2018-09-04T02:43:07.208Z,63.47
2018-09-04T02:45:35.156Z,58.50
2018-09-04T02:48:03.190Z,58.43
2018-09-04T02:50:31.120Z,56.70
2018-09-04T02:52:59.162Z,62.60
2018-09-04T02:55:27.003Z,61.23
2018-09-04T02:57:54.997Z,63.37
2018-09-04T03:00:23.350Z,63.37
2018-09-04T03:02:51.398Z,64.47
2018-09-04T03:05:19.438Z,60.60
2018-09-04T03:07:47.292Z,61.60
2018-09-04T03:10:15.191Z,62.63
2018-09-04T03:12:43.104Z,63.00
2018-09-04T03:15:11.060Z,62.47
2018-09-04T03:17:39.036Z,63.40
2018-09-04T03:20:06.945Z,63.90
2018-09-04T03:22:34.934Z,63.70
2018-09-04T03:25:03.005Z,62.20
2018-09-04T03:27:30.960Z,61.53
2018-09-04T03:29:58.917Z,61.10
2018-09-04T03:32:26.841Z,59.37
2018-09-04T03:34:54.770Z,63.10
2018-09-04T03:37:22.733Z,62.27
2018-09-04T03:39:50.685Z,63.47
2018-09-04T03:42:18.636Z,62.43
2018-09-04T03:44:46.554Z,70.00
2018-09-04T03:47:14.540Z,64.10
2018-09-04T03:49:42.459Z,65.63
2018-09-04T03:52:10.484Z,63.87
2018-09-04T03:54:38.384Z,64.77
2018-09-04T03:57:06.400Z,66.03
2018-09-04T03:59:34.421Z,60.50
2018-09-04T04:02:02.604Z,65.03
2018-09-04T04:04:30.466Z,68.73
2018-09-04T04:06:58.579Z,62.07
2018-09-04T04:09:26.501Z,63.13
2018-09-04T04:11:54.576Z,63.07
2018-09-04T04:14:22.449Z,64.43
2018-09-04T04:16:50.360Z,65.57
2018-09-04T04:19:18.304Z,69.23
2018-09-04T04:21:46.307Z,70.40
2018-09-04T04:24:14.536Z,65.03
2018-09-04T04:26:42.469Z,68.93
2018-09-04T04:29:10.525Z,62.17
2018-09-04T04:31:38.688Z,67.10
2018-09-04T04:34:06.578Z,63.23
2018-09-04T04:36:34.400Z,65.57
2018-09-04T04:39:02.346Z,62.13
2018-09-04T04:41:30.253Z,67.73
2018-09-04T04:43:58.182Z,66.87
2018-09-04T04:46:26.184Z,66.80
2018-09-04T04:48:54.181Z,59.73
2018-09-04T04:51:22.036Z,65.40
2018-09-04T04:53:49.920Z,64.13
2018-09-04T04:56:17.919Z,58.40
2018-09-04T04:58:45.852Z,58.73
2018-09-04T05:01:13.916Z,62.67
2018-09-04T05:03:42.072Z,61.60
2018-09-04T05:06:10.067Z,59.70
2018-09-04T05:08:38.039Z,56.97
2018-09-04T05:11:06.135Z,63.00
2018-09-04T05:13:34.053Z,60.50
2018-09-04T05:16:02.051Z,61.90
2018-09-04T05:18:30.105Z,63.37
2018-09-04T05:20:58.054Z,62.33
2018-09-04T05:23:26.005Z,61.77
2018-09-04T05:25:53.901Z,60.73
2018-09-04T05:28:21.663Z,58.97
2018-09-04T05:30:49.598Z,59.70
2018-09-04T05:33:23.838Z,62.67
2018-09-04T05:35:54.760Z,61.73
2018-09-04T05:38:22.801Z,60.73
2018-09-04T05:40:50.767Z,59.83
2018-09-04T05:43:26.546Z,55.50
2018-09-04T05:45:55.765Z,59.90
2018-09-04T05:48:23.648Z,55.30
2018-09-04T05:50:51.716Z,61.97
2018-09-04T05:53:19.716Z,60.13
2018-09-04T05:55:47.682Z,65.33
2018-09-04T05:58:15.777Z,62.97
2018-09-04T06:00:47.609Z,64.27
2018-09-04T06:03:15.605Z,60.80
2018-09-04T06:05:43.604Z,62.73
2018-09-04T06:08:11.645Z,63.77
2018-09-04T06:10:39.652Z,59.70
2018-09-04T06:13:07.704Z,64.13
2018-09-04T06:15:35.556Z,64.00
2018-09-04T06:18:03.374Z,65.10
2018-09-04T06:20:31.459Z,64.43
2018-09-04T06:22:59.310Z,62.80
2018-09-04T06:25:27.333Z,65.07
2018-09-04T06:27:55.382Z,55.90
2018-09-04T06:30:23.433Z,66.50
2018-09-04T06:32:51.463Z,65.93
2018-09-04T06:35:19.413Z,61.57
2018-09-04T06:37:47.319Z,63.37
2018-09-04T06:40:15.278Z,63.33
2018-09-04T06:42:43.230Z,59.67
2018-09-04T06:45:11.181Z,59.23
2018-09-04T06:47:39.068Z,57.80
2018-09-04T06:50:07.101Z,57.97
2018-09-04T06:52:34.959Z,56.70
2018-09-04T06:55:02.906Z,58.07
2018-09-04T06:57:30.997Z,58.67
2018-09-04T06:59:58.980Z,59.20
2018-09-04T07:02:27.060Z,58.77
2018-09-04T07:04:54.936Z,56.27
2018-09-04T07:07:22.866Z,58.80
2018-09-04T07:09:50.843Z,56.70
2018-09-04T07:12:18.848Z,55.70
2018-09-04T07:14:46.851Z,57.13
2018-09-04T07:17:14.913Z,55.97
2018-09-04T07:19:42.932Z,51.23
2018-09-04T07:22:10.788Z,52.23
2018-09-04T07:24:38.824Z,52.27
2018-09-04T07:27:06.513Z,51.10
2018-09-04T07:29:34.429Z,54.07
2018-09-04T07:32:02.424Z,52.80
2018-09-04T07:34:30.334Z,52.87
2018-09-04T07:36:58.537Z,54.27
2018-09-04T07:39:26.456Z,54.63
2018-09-04T07:41:54.438Z,53.83
2018-09-04T07:44:22.428Z,55.50
2018-09-04T07:46:50.362Z,54.87
2018-09-04T07:49:18.552Z,58.17
2018-09-04T07:51:46.380Z,56.80
2018-09-04T07:54:14.375Z,62.43
2018-09-04T07:56:42.210Z,56.67
2018-09-04T07:59:10.951Z,54.70
2018-09-04T08:01:38.968Z,52.70
2018-09-04T08:04:06.985Z,55.50
2018-09-04T08:06:34.838Z,57.47
2018-09-04T08:09:03.201Z,54.03
2018-09-04T08:11:31.117Z,53.47
2018-09-04T08:13:58.952Z,51.30
2018-09-04T08:16:26.924Z,53.13
2018-09-04T08:18:54.807Z,53.73
2018-09-04T08:21:22.668Z,50.80
2018-09-04T08:23:50.474Z,50.07
2018-09-04T08:26:18.498Z,47.87
2018-09-04T08:28:46.483Z,58.83
2018-09-04T08:31:14.316Z,46.37
2018-09-04T08:33:42.351Z,51.27
2018-09-04T08:36:10.550Z,45.87
2018-09-04T08:38:44.089Z,47.73
2018-09-04T08:41:11.941Z,48.57
2018-09-04T08:43:39.965Z,46.37
2018-09-04T08:46:08.230Z,51.87
2018-09-04T08:48:36.283Z,48.03
2018-09-04T08:51:04.239Z,46.57
2018-09-04T08:53:32.399Z,46.17
2018-09-04T08:56:00.327Z,44.63
2018-09-04T08:58:28.589Z,45.70
2018-09-04T09:00:56.691Z,47.50
2018-09-04T09:03:24.834Z,45.70
2018-09-04T09:05:53.329Z,46.37
2018-09-04T09:08:21.455Z,44.73
2018-09-04T09:10:49.462Z,45.17
2018-09-04T09:13:17.550Z,45.53
2018-09-04T09:15:45.664Z,43.40
2018-09-04T09:18:13.817Z,46.20
2018-09-04T09:20:41.983Z,42.77
2018-09-04T09:23:10.078Z,45.63
2018-09-04T09:25:38.048Z,44.70
2018-09-04T09:28:06.204Z,40.23
2018-09-04T09:30:34.397Z,48.13
2018-09-04T09:33:02.645Z,42.30
2018-09-04T09:35:30.665Z,46.57
2018-09-04T09:37:58.812Z,44.27
2018-09-04T09:40:26.895Z,41.93
2018-09-04T09:42:54.775Z,46.33
2018-09-04T09:45:22.802Z,42.10
2018-09-04T09:47:52.058Z,43.33
2018-09-04T09:50:20.997Z,42.17
2018-09-04T09:52:49.437Z,40.07
2018-09-04T09:55:17.553Z,39.50
2018-09-04T09:57:45.644Z,42.70
2018-09-04T10:00:19.353Z,43.07
2018-09-04T10:02:49.282Z,43.43
2018-09-04T10:05:17.619Z,43.50
2018-09-04T10:07:45.957Z,52.20
2018-09-04T10:10:14.067Z,41.73
2018-09-04T10:12:42.048Z,42.83
2018-09-04T10:15:09.940Z,40.17
2018-09-04T10:17:37.944Z,39.30
2018-09-04T10:20:05.940Z,40.57
2018-09-04T10:22:34.028Z,38.90
2018-09-04T10:25:01.975Z,40.57
2018-09-04T10:27:29.999Z,39.73
2018-09-04T10:29:58.006Z,39.97
2018-09-04T10:32:26.017Z,38.63
2018-09-04T10:34:54.093Z,48.83
2018-09-04T10:37:21.995Z,44.00
2018-09-04T10:39:55.562Z,39.00
2018-09-04T10:42:28.955Z,42.47
2018-09-04T10:44:57.025Z,38.27
2018-09-04T10:47:25.050Z,35.63
2018-09-04T10:49:53.145Z,39.13
2018-09-04T10:52:21.120Z,37.43
2018-09-04T10:54:49.127Z,38.47
2018-09-04T10:57:17.041Z,41.63
2018-09-04T10:59:45.053Z,36.83
2018-09-04T11:02:14.303Z,33.40
2018-09-04T11:04:42.271Z,45.97
2018-09-04T11:07:10.217Z,40.67
2018-09-04T11:09:38.395Z,35.63
2018-09-04T11:12:06.236Z,33.80
2018-09-04T11:14:34.130Z,36.40
2018-09-04T11:17:02.056Z,35.10
2018-09-04T11:19:30.052Z,35.80
2018-09-04T11:21:57.987Z,38.43
2018-09-04T11:24:25.913Z,40.30
2018-09-04T11:26:53.909Z,39.27
2018-09-04T11:29:21.861Z,33.17
2018-09-04T11:31:49.838Z,58.33
2018-09-04T11:34:17.944Z,31.23
2018-09-04T11:36:46.000Z,30.90
2018-09-04T11:39:13.909Z,27.87
2018-09-04T11:41:41.905Z,29.27
2018-09-04T11:44:09.898Z,38.83
2018-09-04T11:46:37.880Z,29.33
2018-09-04T11:49:05.956Z,27.60
2018-09-04T11:51:34.011Z,27.13
2018-09-04T11:54:01.964Z,28.17
2018-09-04T11:56:30.034Z,31.60
2018-09-04T11:58:58.185Z,36.73
2018-09-04T12:01:28.763Z,41.07
2018-09-04T12:03:56.743Z,31.33
2018-09-04T12:06:24.712Z,26.03
2018-09-04T12:08:52.612Z,28.50
2018-09-04T12:11:20.551Z,30.70
2018-09-04T12:13:48.594Z,27.37
2018-09-04T12:16:16.756Z,24.57
2018-09-04T12:18:44.720Z,27.50
2018-09-04T12:21:12.788Z,25.33
2018-09-04T12:23:40.795Z,23.60
2018-09-04T12:26:09.929Z,25.20
2018-09-04T12:28:37.975Z,25.60
2018-09-04T12:31:06.812Z,25.13
2018-09-04T12:33:34.840Z,23.60
2018-09-04T12:36:06.563Z,23.80
2018-09-04T12:38:36.848Z,24.53
2018-09-04T12:41:20.899Z,27.57
2018-09-04T12:43:48.894Z,25.80
2018-09-04T12:46:16.990Z,23.43
2018-09-04T12:48:47.928Z,24.67
2018-09-04T12:51:18.978Z,24.00
2018-09-04T12:53:47.042Z,23.93
2018-09-04T12:56:15.036Z,24.80
2018-09-04T12:58:43.034Z,24.30
2018-09-04T13:01:11.129Z,25.00
2018-09-04T13:03:39.174Z,22.73
2018-09-04T13:06:07.217Z,24.50
2018-09-04T13:08:35.181Z,21.77
2018-09-04T13:11:03.130Z,19.60
2018-09-04T13:13:31.098Z,20.83
2018-09-04T13:16:00.421Z,19.57
2018-09-04T13:18:29.104Z,20.63
2018-09-04T13:21:02.322Z,21.30
2018-09-04T13:23:31.258Z,20.07
2018-09-04T13:25:59.575Z,18.87
2018-09-04T13:28:28.316Z,19.83
2018-09-04T13:30:56.418Z,18.60
2018-09-04T13:33:24.683Z,18.40
2018-09-04T13:35:52.741Z,18.33
2018-09-04T13:38:20.870Z,19.03
2018-09-04T13:40:53.379Z,18.40
2018-09-04T13:43:21.567Z,17.87
2018-09-04T13:45:49.649Z,17.77
2018-09-04T13:48:17.731Z,17.73
2018-09-04T13:50:45.726Z,16.90
2018-09-04T13:53:13.740Z,16.90
2018-09-04T13:55:41.989Z,16.17
2018-09-04T13:58:09.905Z,15.60
2018-09-04T14:00:37.888Z,16.93
2018-09-04T14:03:05.816Z,16.80
2018-09-04T14:05:33.740Z,16.02
2018-09-04T14:08:01.814Z,16.67
2018-09-04T14:10:29.856Z,15.97
2018-09-04T14:12:57.833Z,15.37
2018-09-04T14:15:26.249Z,15.67
2018-09-04T14:17:54.256Z,16.33
2018-09-04T14:20:22.333Z,14.70
2018-09-04T14:22:50.294Z,16.03
2018-09-04T14:25:18.292Z,15.73
2018-09-04T14:27:46.206Z,15.17
2018-09-04T14:30:17.090Z,15.23
2018-09-04T14:32:42.012Z,15.63
2018-09-04T14:35:09.928Z,14.20
2018-09-04T14:37:37.950Z,15.20
2018-09-04T14:40:05.905Z,14.77
2018-09-04T14:42:33.994Z,14.67
2018-09-04T14:45:01.932Z,14.47
2018-09-04T14:47:29.935Z,14.27
2018-09-04T14:49:57.936Z,14.30
2018-09-04T14:52:25.868Z,13.90
2018-09-04T14:54:53.838Z,13.83
2018-09-04T14:57:21.747Z,14.20
2018-09-04T14:59:49.759Z,13.30
2018-09-04T15:02:17.664Z,13.37
2018-09-04T15:04:45.578Z,13.50
2018-09-04T15:07:13.623Z,12.73
2018-09-04T15:09:41.536Z,13.03
2018-09-04T15:12:09.543Z,12.30
2018-09-04T15:14:37.466Z,13.13
2018-09-04T15:17:05.787Z,12.63
2018-09-04T15:19:33.791Z,13.00
2018-09-04T15:22:01.755Z,12.17
2018-09-04T15:24:29.709Z,11.53
2018-09-04T15:26:57.870Z,12.17
2018-09-04T15:29:25.860Z,12.47
2018-09-04T15:31:53.844Z,12.53
2018-09-04T15:34:21.714Z,11.50
2018-09-04T15:36:49.590Z,11.47
2018-09-04T15:39:17.567Z,11.40
2018-09-04T15:41:52.125Z,10.43
2018-09-04T15:44:20.082Z,10.00
2018-09-04T15:46:47.975Z,10.40
2018-09-04T15:49:21.732Z,9.70
2018-09-04T15:51:49.791Z,10.27
2018-09-04T15:54:17.695Z,9.73
2018-09-04T15:56:45.763Z,9.80
2018-09-04T15:59:13.640Z,9.83
2018-09-04T16:01:41.728Z,10.43
2018-09-04T16:04:09.644Z,10.63
2018-09-04T16:06:37.664Z,9.43
2018-09-04T16:09:06.167Z,10.50
2018-09-04T16:11:34.222Z,10.30
2018-09-04T16:14:04.716Z,10.43
2018-09-04T16:16:32.689Z,10.40
2018-09-04T16:19:00.676Z,10.20
2018-09-04T16:21:28.647Z,10.50
2018-09-04T16:23:56.593Z,11.17
2018-09-04T16:26:24.573Z,11.00
2018-09-04T16:28:52.460Z,10.77
2018-09-04T16:31:20.472Z,11.03
2018-09-04T16:33:48.714Z,11.07
2018-09-04T16:36:16.714Z,11.40
2018-09-04T16:38:44.709Z,11.30
2018-09-04T16:41:12.641Z,10.57
2018-09-04T16:43:40.546Z,11.47
2018-09-04T16:46:08.520Z,11.80
2018-09-04T16:48:36.405Z,12.00
2018-09-04T16:51:04.308Z,12.53
2018-09-04T16:53:32.940Z,11.73
2018-09-04T16:56:02.033Z,12.13
2018-09-04T16:58:31.072Z,12.00
2018-09-04T17:00:59.085Z,12.47
2018-09-04T17:04:03.932Z,13.27
2018-09-04T17:06:31.545Z,12.93
2018-09-04T17:08:59.230Z,12.83
2018-09-04T17:11:26.793Z,13.80
2018-09-04T17:13:54.516Z,13.33
2018-09-04T17:16:22.399Z,13.57
2018-09-04T17:18:50.232Z,12.67
2018-09-04T17:21:17.898Z,12.73
2018-09-04T17:23:45.564Z,12.97
2018-09-04T17:26:13.181Z,14.53
2018-09-04T17:28:40.910Z,14.30
2018-09-04T17:31:08.623Z,14.30
2018-09-04T17:33:36.342Z,13.93
2018-09-04T17:36:04.072Z,13.97
2018-09-04T17:38:31.951Z,14.63
2018-09-04T17:40:59.729Z,14.93
2018-09-04T17:43:27.635Z,14.70
2018-09-04T17:45:55.419Z,14.40
2018-09-04T17:48:23.157Z,15.63
2018-09-04T17:50:51.030Z,15.87
2018-09-04T17:53:18.794Z,16.00
2018-09-04T17:55:46.689Z,15.60
2018-09-04T17:58:14.486Z,16.43
2018-09-04T18:00:42.350Z,15.70
2018-09-04T18:03:10.055Z,15.83
2018-09-04T18:05:38.929Z,15.53
2018-09-04T18:08:06.705Z,14.20
2018-09-04T18:10:34.529Z,13.87
2018-09-04T18:13:02.285Z,14.83
2018-09-04T18:15:30.024Z,14.60
2018-09-04T18:17:57.787Z,16.10
2018-09-04T18:20:25.543Z,15.60
2018-09-04T18:22:53.356Z,16.17
2018-09-04T18:25:21.043Z,15.03
2018-09-04T18:27:48.776Z,15.87
2018-09-04T18:30:17.515Z,14.77
2018-09-04T18:32:45.336Z,14.17
2018-09-04T18:35:13.008Z,14.80
2018-09-04T18:37:40.736Z,13.70
2018-09-04T18:40:08.457Z,14.60
2018-09-04T18:42:36.169Z,16.40
2018-09-04T18:45:04.034Z,16.67
2018-09-04T18:47:31.913Z,16.30
2018-09-04T18:50:00.477Z,15.80
2018-09-04T18:52:28.360Z,15.77
2018-09-04T18:54:56.648Z,14.60
2018-09-04T18:57:24.610Z,14.80
2018-09-04T18:59:52.546Z,14.60
2018-09-04T19:02:20.369Z,15.07
2018-09-04T19:04:48.344Z,16.27
2018-09-04T19:07:16.027Z,17.70
2018-09-04T19:09:43.870Z,16.57
2018-09-04T19:12:11.752Z,16.40
2018-09-04T19:14:39.593Z,18.00
2018-09-04T19:17:07.441Z,17.20
2018-09-04T19:19:35.233Z,16.40
2018-09-04T19:22:03.079Z,15.37
2018-09-04T19:24:31.072Z,17.07
2018-09-04T19:26:58.789Z,16.70
2018-09-04T19:29:26.629Z,16.90
2018-09-04T19:31:55.969Z,17.00
2018-09-04T19:34:23.941Z,16.57
2018-09-04T19:36:51.763Z,16.70
2018-09-04T19:39:19.534Z,17.53
2018-09-04T19:41:47.243Z,18.57
2018-09-04T19:44:14.983Z,19.73
2018-09-04T19:46:42.729Z,20.57
2018-09-04T19:49:10.488Z,20.00
2018-09-04T19:51:38.267Z,20.33
2018-09-04T19:54:06.408Z,18.80
2018-09-04T19:56:35.124Z,19.97
2018-09-04T19:59:02.944Z,19.83
2018-09-04T20:01:31.292Z,21.10
2018-09-04T20:03:59.017Z,20.10
2018-09-04T20:06:27.172Z,18.80
2018-09-04T20:08:55.252Z,19.20
2018-09-04T20:11:23.023Z,17.07
2018-09-04T20:13:51.594Z,18.90
2018-09-04T20:16:19.502Z,18.20
2018-09-04T20:18:47.560Z,18.43
2018-09-04T20:21:15.345Z,17.50
2018-09-04T20:23:43.163Z,19.30
2018-09-04T20:26:10.887Z,18.87
2018-09-04T20:28:38.717Z,18.17
2018-09-04T20:31:07.082Z,18.17
2018-09-04T20:33:35.120Z,17.73
2018-09-04T20:36:02.820Z,17.30
2018-09-04T20:38:30.657Z,18.90
2018-09-04T20:40:58.456Z,19.20
2018-09-04T20:43:26.297Z,19.67
2018-09-04T20:45:53.982Z,20.10
2018-09-04T20:48:22.135Z,19.67
2018-09-04T20:50:50.350Z,18.33
2018-09-04T20:53:18.477Z,19.67
2018-09-04T20:55:46.597Z,20.32
2018-09-04T20:58:25.712Z,20.27
2018-09-04T21:01:04.572Z,20.15
2018-09-04T21:03:43.559Z,20.10
2018-09-04T21:06:22.549Z,21.30
2018-09-04T21:08:58.597Z,20.10
2018-09-04T21:11:26.338Z,21.53
2018-09-04T21:13:54.100Z,22.02
2018-09-04T21:16:21.879Z,20.00
2018-09-04T21:18:49.506Z,20.77
2018-09-04T21:21:17.495Z,20.90
2018-09-04T21:23:45.209Z,20.80
2018-09-04T21:26:13.002Z,20.82
2018-09-04T21:28:40.680Z,21.27
2018-09-04T21:31:08.304Z,20.65
2018-09-04T21:33:35.974Z,19.90
2018-09-04T21:36:03.728Z,20.80
2018-09-04T21:38:31.587Z,21.73
2018-09-04T21:40:59.320Z,20.68
2018-09-04T21:43:26.899Z,19.77
2018-09-04T21:45:54.495Z,20.70
2018-09-04T21:48:22.240Z,22.52
2018-09-04T21:50:50.139Z,20.65
2018-09-04T21:53:18.305Z,20.70
2018-09-04T21:55:46.437Z,20.52
2018-09-04T21:58:14.566Z,21.07
2018-09-04T22:00:42.407Z,20.52
2018-09-04T22:03:10.252Z,20.57
2018-09-04T22:05:39.364Z,20.37
2018-09-04T22:08:07.296Z,22.55
2018-09-04T22:10:35.384Z,21.70
2018-09-04T22:13:03.357Z,21.90
2018-09-04T22:15:31.289Z,21.25
2018-09-04T22:17:59.464Z,22.17
2018-09-04T22:20:27.393Z,21.87
2018-09-04T22:22:55.300Z,21.80
2018-09-04T22:25:23.149Z,21.83
2018-09-04T22:27:51.085Z,20.60
2018-09-04T22:30:19.045Z,22.67
2018-09-04T22:32:46.908Z,22.70
2018-09-04T22:35:14.770Z,21.93
2018-09-04T22:37:42.774Z,22.60
2018-09-04T22:40:10.650Z,21.03
2018-09-04T22:42:39.648Z,22.97
2018-09-04T22:45:07.668Z,22.87
2018-09-04T22:47:35.680Z,23.18
2018-09-04T22:50:09.144Z,23.10
2018-09-04T22:52:37.165Z,24.77
2018-09-04T22:55:07.642Z,23.10
2018-09-04T22:57:35.566Z,23.32
2018-09-04T23:00:03.592Z,25.23
2018-09-04T23:02:31.626Z,23.25
2018-09-04T23:04:59.443Z,21.00
2018-09-04T23:07:27.275Z,22.90
2018-09-04T23:09:55.146Z,22.40
2018-09-04T23:12:23.062Z,23.20
2018-09-04T23:14:51.036Z,23.80
2018-09-04T23:17:18.977Z,23.37
2018-09-04T23:19:46.920Z,21.73
2018-09-04T23:22:14.951Z,22.27
2018-09-04T23:24:43.060Z,23.50
2018-09-04T23:27:10.855Z,21.50
2018-09-04T23:29:39.124Z,22.10
2018-09-04T23:32:07.090Z,22.07
2018-09-04T23:34:35.500Z,21.63
2018-09-04T23:37:03.464Z,20.43
2018-09-04T23:39:31.449Z,21.87
2018-09-04T23:41:59.399Z,21.23
2018-09-04T23:44:27.402Z,21.93
2018-09-04T23:46:55.393Z,22.20
2018-09-04T23:49:23.294Z,21.57
2018-09-04T23:51:51.195Z,21.67
2018-09-04T23:54:19.360Z,21.50
2018-09-04T23:56:47.386Z,22.10
2018-09-04T23:59:15.426Z,21.23
